Time;durP1;ratioP1;P1;durP2;ratioP2;P2;SDS_P1;SDS_P2;PMS_P1;PMS_P2;Temp;Humidity;BMP_temperature;BMP_pressure;BME280_temperature;BME280_humidity;BME280_pressure;Samples;Min_cycle;Max_cycle;Signal;HPM_P1;HPM_P2
2021/05/02 00:00:45;;;;;;;17.48;9.88;;;12.10;51.10;;;;;;5050948;28;20372;-74
2021/05/02 00:03:11;;;;;;;14.70;10.00;;;12.20;51.00;;;;;;5048684;28;20067;-73
2021/05/02 00:05:38;;;;;;;17.50;9.73;;;12.20;51.10;;;;;;5051628;28;20049;-73
2021/05/02 00:08:05;;;;;;;14.68;8.80;;;12.20;50.20;;;;;;5048766;28;20408;-73
2021/05/02 00:10:34;;;;;;;13.95;9.32;;;12.20;49.50;;;;;;5046216;28;20152;-73
2021/05/02 00:13:02;;;;;;;13.90;8.57;;;12.20;49.70;;;;;;5039099;28;20041;-74
2021/05/02 00:15:30;;;;;;;13.52;8.88;;;12.20;49.40;;;;;;5048658;28;20052;-75
2021/05/02 00:17:57;;;;;;;15.07;9.63;;;12.10;49.60;;;;;;5044961;28;20144;-75
2021/05/02 00:20:26;;;;;;;13.30;9.20;;;12.20;49.90;;;;;;5047239;28;20111;-74
2021/05/02 00:22:56;;;;;;;17.33;8.93;;;12.20;49.70;;;;;;5048567;28;20079;-74
2021/05/02 00:25:26;;;;;;;13.05;8.65;;;12.20;49.80;;;;;;5067204;28;20573;-73
2021/05/02 00:27:53;;;;;;;16.70;9.48;;;12.20;49.40;;;;;;5044964;28;20202;-73
2021/05/02 00:30:22;;;;;;;13.93;9.02;;;12.20;49.30;;;;;;5049063;28;20045;-75
2021/05/02 00:32:51;;;;;;;16.38;8.75;;;12.10;49.30;;;;;;5039140;28;20058;-74
2021/05/02 00:35:21;;;;;;;14.18;8.60;;;12.20;49.30;;;;;;5040438;28;20699;-74
2021/05/02 00:37:47;;;;;;;13.80;9.43;;;12.10;49.30;;;;;;5050920;28;20044;-75
2021/05/02 00:40:18;;;;;;;15.13;9.38;;;12.10;49.10;;;;;;5046767;28;20446;-75
2021/05/02 00:42:53;;;;;;;14.27;9.23;;;12.10;49.30;;;;;;5048846;28;20111;-74
2021/05/02 00:45:34;;;;;;;16.88;9.35;;;12.20;49.10;;;;;;5037885;28;20045;-73
2021/05/02 00:48:09;;;;;;;16.58;9.20;;;12.20;48.90;;;;;;5060259;28;20053;-73
2021/05/02 00:51:02;;;;;;;16.75;9.98;;;12.10;48.60;;;;;;5046483;28;20065;-74
2021/05/02 00:53:47;;;;;;;15.13;9.40;;;12.10;48.90;;;;;;5047491;28;20805;-74
2021/05/02 00:56:21;;;;;;;15.13;10.25;;;12.10;48.70;;;;;;5040763;28;20049;-72
2021/05/02 00:59:05;;;;;;;14.13;8.68;;;12.10;48.50;;;;;;5047283;28;20438;-73
2021/05/02 01:01:49;;;;;;;17.13;9.50;;;12.10;48.00;;;;;;5047481;28;20460;-73
2021/05/02 01:04:23;;;;;;;13.70;9.30;;;12.00;47.70;;;;;;5043734;28;20041;-74
2021/05/02 01:06:55;;;;;;;19.13;9.88;;;12.00;48.00;;;;;;5044406;28;20612;-74
2021/05/02 01:09:24;;;;;;;14.27;9.57;;;12.00;48.10;;;;;;5045932;28;20133;-73
2021/05/02 01:11:52;;;;;;;13.48;9.18;;;12.10;47.60;;;;;;5047990;28;20041;-73
2021/05/02 01:14:23;;;;;;;13.80;10.18;;;12.00;47.50;;;;;;5044694;28;20065;-72
2021/05/02 01:16:53;;;;;;;18.10;8.95;;;12.00;47.40;;;;;;5046263;28;20045;-74
2021/05/02 01:19:20;;;;;;;15.55;9.18;;;12.10;47.10;;;;;;5036409;28;20131;-73
2021/05/02 01:21:49;;;;;;;14.25;8.45;;;12.10;47.30;;;;;;5049024;28;20053;-74
2021/05/02 01:24:17;;;;;;;12.53;8.07;;;12.00;47.00;;;;;;5042556;28;20048;-76
2021/05/02 01:26:45;;;;;;;11.02;7.40;;;12.00;46.60;;;;;;5062196;28;20045;-74
2021/05/02 01:29:14;;;;;;;13.52;7.90;;;12.00;46.30;;;;;;5043807;28;20445;-72
2021/05/02 01:31:42;;;;;;;9.93;6.53;;;11.90;46.30;;;;;;5048668;28;20090;-74
2021/05/02 01:34:09;;;;;;;9.52;6.78;;;11.90;46.40;;;;;;5061717;28;20040;-72
2021/05/02 01:36:36;;;;;;;9.40;6.80;;;11.90;46.30;;;;;;5048957;28;20485;-73
2021/05/02 01:39:07;;;;;;;8.88;6.05;;;11.80;46.40;;;;;;5046718;28;20473;-73
2021/05/02 01:41:34;;;;;;;8.55;6.43;;;11.70;46.50;;;;;;5045246;28;20060;-73
2021/05/02 01:44:00;;;;;;;10.73;6.60;;;11.70;46.60;;;;;;5039872;28;20453;-73
2021/05/02 01:46:36;;;;;;;10.40;6.85;;;11.70;46.60;;;;;;5039935;28;20566;-72
2021/05/02 01:49:07;;;;;;;10.80;6.28;;;11.80;46.80;;;;;;5053696;28;20472;-73
2021/05/02 01:51:36;;;;;;;11.82;6.13;;;11.80;46.60;;;;;;5042126;28;20496;-72
2021/05/02 01:54:03;;;;;;;8.23;5.82;;;11.70;46.80;;;;;;5039498;28;20646;-74
2021/05/02 01:56:31;;;;;;;9.85;6.18;;;11.70;47.00;;;;;;5048857;28;20129;-73
2021/05/02 01:59:04;;;;;;;14.57;6.63;;;11.70;46.90;;;;;;5041028;28;20099;-73
2021/05/02 02:01:31;;;;;;;8.40;6.25;;;11.60;47.20;;;;;;5039648;28;20041;-73
2021/05/02 02:04:01;;;;;;;10.65;6.82;;;11.60;47.30;;;;;;5047601;28;20492;-73
2021/05/02 02:06:29;;;;;;;9.65;6.45;;;11.60;47.50;;;;;;5046448;28;20147;-74
2021/05/02 02:08:59;;;;;;;10.35;7.20;;;11.60;47.40;;;;;;5050182;28;20045;-74
2021/05/02 02:11:31;;;;;;;10.88;6.32;;;11.50;47.60;;;;;;5044269;28;20048;-74
2021/05/02 02:13:58;;;;;;;10.75;6.93;;;11.50;47.70;;;;;;5044482;28;20056;-72
2021/05/02 02:16:26;;;;;;;14.10;6.57;;;11.50;47.90;;;;;;5045794;28;20041;-73
2021/05/02 02:18:53;;;;;;;10.18;6.82;;;11.50;47.90;;;;;;5048961;28;20045;-73
2021/05/02 02:21:25;;;;;;;15.23;7.80;;;11.50;48.10;;;;;;5047175;28;20044;-74
2021/05/02 02:24:12;;;;;;;12.68;7.18;;;11.60;48.10;;;;;;5060416;28;20053;-74
2021/05/02 02:26:41;;;;;;;9.85;6.97;;;11.50;48.10;;;;;;5045721;28;20514;-74
2021/05/02 02:29:10;;;;;;;17.20;6.65;;;11.50;48.30;;;;;;5046020;28;20442;-73
2021/05/02 02:31:39;;;;;;;9.65;7.22;;;11.40;48.60;;;;;;5044111;28;20073;-73
2021/05/02 02:34:06;;;;;;;12.43;7.60;;;11.40;48.90;;;;;;5047255;28;20080;-73
2021/05/02 02:36:32;;;;;;;11.23;6.88;;;11.30;48.80;;;;;;5052385;28;20094;-75
2021/05/02 02:38:59;;;;;;;12.82;7.68;;;11.30;49.00;;;;;;5048509;28;20095;-74
2021/05/02 02:41:27;;;;;;;10.85;7.60;;;11.30;49.20;;;;;;5047813;28;20033;-74
2021/05/02 02:43:58;;;;;;;12.27;7.80;;;11.30;49.00;;;;;;5047857;28;20491;-74
2021/05/02 02:46:25;;;;;;;15.82;8.20;;;11.30;49.50;;;;;;5060559;28;20076;-74
2021/05/02 02:48:57;;;;;;;10.13;7.45;;;11.30;49.30;;;;;;5046368;28;20510;-74
2021/05/02 02:51:26;;;;;;;14.82;8.60;;;11.20;49.40;;;;;;5046791;28;20160;-73
2021/05/02 02:53:55;;;;;;;16.73;7.90;;;11.30;49.40;;;;;;5037519;28;20140;-73
2021/05/02 02:56:22;;;;;;;12.43;8.52;;;11.30;49.60;;;;;;5044310;28;20437;-73
2021/05/02 02:59:03;;;;;;;13.55;8.50;;;11.10;49.70;;;;;;5059167;28;20048;-72
2021/05/02 03:01:29;;;;;;;12.23;8.48;;;11.20;49.70;;;;;;5043684;28;20045;-74
2021/05/02 03:04:02;;;;;;;15.43;9.68;;;11.20;49.90;;;;;;5043878;28;20050;-73
2021/05/02 03:06:29;;;;;;;12.38;9.07;;;11.20;50.00;;;;;;5052425;28;20134;-74
2021/05/02 03:08:56;;;;;;;11.70;8.40;;;11.10;50.10;;;;;;5039478;28;20049;-73
2021/05/02 03:11:25;;;;;;;15.48;9.38;;;11.10;50.20;;;;;;5047424;28;20061;-73
2021/05/02 03:13:55;;;;;;;14.13;9.00;;;11.20;50.60;;;;;;5049711;28;20041;-75
2021/05/02 03:16:28;;;;;;;12.13;8.20;;;11.10;50.20;;;;;;5049183;28;20045;-72
2021/05/02 03:19:21;;;;;;;13.95;9.15;;;11.10;50.30;;;;;;5050629;28;20045;-72
2021/05/02 03:22:00;;;;;;;15.52;9.05;;;11.10;50.60;;;;;;5050323;28;20049;-73
2021/05/02 03:24:31;;;;;;;14.48;8.05;;;11.00;50.50;;;;;;5049866;28;20431;-73
2021/05/02 03:27:03;;;;;;;16.60;8.68;;;11.10;50.70;;;;;;5051546;28;20049;-72
2021/05/02 03:29:39;;;;;;;13.02;8.68;;;11.10;50.50;;;;;;5052385;28;20488;-73
2021/05/02 03:32:07;;;;;;;12.93;9.05;;;11.10;51.00;;;;;;5053514;28;20084;-72
2021/05/02 03:34:39;;;;;;;12.10;8.80;;;11.10;50.80;;;;;;5049762;28;20044;-73
2021/05/02 03:37:11;;;;;;;14.85;9.15;;;11.00;50.90;;;;;;5043961;28;20391;-73
2021/05/02 03:39:40;;;;;;;16.27;8.88;;;11.00;51.00;;;;;;5050317;28;20056;-74
2021/05/02 03:42:07;;;;;;;16.10;10.18;;;11.00;51.00;;;;;;5049235;28;20648;-74
2021/05/02 03:44:33;;;;;;;14.27;8.88;;;11.00;51.20;;;;;;5046308;28;20048;-73
2021/05/02 03:47:00;;;;;;;15.15;9.25;;;10.90;51.30;;;;;;5050671;28;20059;-73
2021/05/02 03:49:30;;;;;;;13.65;9.27;;;10.90;51.60;;;;;;5049566;28;20053;-74
2021/05/02 03:51:57;;;;;;;16.33;9.65;;;10.90;51.80;;;;;;5053596;28;20275;-74
2021/05/02 03:54:23;;;;;;;11.32;8.85;;;10.90;51.80;;;;;;5050152;28;20467;-74
2021/05/02 03:56:50;;;;;;;13.93;9.35;;;10.80;52.00;;;;;;5049999;28;20095;-74
2021/05/02 03:59:18;;;;;;;20.55;9.32;;;10.80;52.00;;;;;;5050021;28;20569;-74
2021/05/02 04:01:55;;;;;;;14.95;9.40;;;10.90;52.00;;;;;;5048940;28;20049;-73
2021/05/02 04:04:29;;;;;;;17.20;9.32;;;10.80;52.20;;;;;;5051372;28;20044;-73
2021/05/02 04:07:06;;;;;;;17.92;9.93;;;10.80;52.40;;;;;;5065970;28;20041;-73
2021/05/02 04:09:34;;;;;;;23.88;12.85;;;10.70;52.40;;;;;;5045153;28;20129;-73
2021/05/02 04:12:02;;;;;;;14.55;10.10;;;10.80;52.60;;;;;;5050007;28;20057;-74
2021/05/02 04:14:28;;;;;;;16.00;10.32;;;10.90;52.50;;;;;;5048819;28;20033;-75
2021/05/02 04:16:56;;;;;;;17.38;10.10;;;10.70;52.60;;;;;;5048380;28;20099;-74
2021/05/02 04:19:24;;;;;;;15.27;10.15;;;10.70;52.80;;;;;;5049056;28;20045;-75
2021/05/02 04:21:51;;;;;;;19.75;11.57;;;10.70;52.80;;;;;;5051041;28;20107;-74
2021/05/02 04:24:18;;;;;;;14.35;10.20;;;10.80;52.90;;;;;;5047213;28;20048;-74
2021/05/02 04:26:46;;;;;;;15.73;10.32;;;10.80;52.90;;;;;;5050143;28;20049;-74
2021/05/02 04:29:13;;;;;;;14.85;10.48;;;10.70;53.10;;;;;;5043724;28;20085;-74
2021/05/02 04:31:40;;;;;;;17.23;11.30;;;10.70;53.20;;;;;;5045278;28;20045;-74
2021/05/02 04:34:07;;;;;;;19.48;11.45;;;10.70;53.30;;;;;;5040856;28;20049;-74
2021/05/02 04:36:33;;;;;;;17.27;11.30;;;10.80;53.50;;;;;;5045023;28;20452;-74
2021/05/02 04:39:00;;;;;;;19.45;11.38;;;10.90;53.30;;;;;;5044427;28;20091;-74
2021/05/02 04:41:27;;;;;;;17.58;11.32;;;10.80;53.40;;;;;;5050556;28;20480;-74
2021/05/02 04:43:54;;;;;;;21.25;11.05;;;10.70;53.60;;;;;;5048994;28;20049;-73
2021/05/02 04:46:20;;;;;;;19.77;12.02;;;10.80;53.60;;;;;;5049265;28;20399;-74
2021/05/02 04:48:47;;;;;;;22.73;11.82;;;10.80;53.80;;;;;;5046905;28;20222;-75
2021/05/02 04:51:14;;;;;;;20.23;12.07;;;10.70;53.70;;;;;;5040753;28;20080;-74
2021/05/02 04:53:42;;;;;;;18.70;11.85;;;10.60;53.80;;;;;;5044023;28;20421;-75
2021/05/02 04:56:09;;;;;;;16.58;11.05;;;10.50;54.20;;;;;;5045402;28;20419;-74
2021/05/02 04:58:35;;;;;;;19.77;11.45;;;10.50;54.50;;;;;;5048424;28;20075;-75
2021/05/02 05:01:02;;;;;;;17.52;11.75;;;10.40;54.80;;;;;;5046347;28;20112;-75
2021/05/02 05:03:31;;;;;;;18.17;12.45;;;10.40;54.70;;;;;;5046244;28;20441;-74
2021/05/02 05:05:58;;;;;;;18.65;12.82;;;10.50;54.90;;;;;;5047914;28;20461;-75
2021/05/02 05:08:24;;;;;;;21.50;12.40;;;10.40;55.10;;;;;;5045779;28;20069;-74
2021/05/02 05:10:51;;;;;;;20.02;12.50;;;10.40;55.40;;;;;;5046512;28;20071;-74
2021/05/02 05:13:17;;;;;;;19.70;12.40;;;10.40;55.50;;;;;;5050227;28;20048;-74
2021/05/02 05:15:44;;;;;;;21.20;12.75;;;10.40;55.50;;;;;;5047922;28;20037;-75
2021/05/02 05:18:10;;;;;;;23.08;12.90;;;10.30;55.70;;;;;;5046147;28;20566;-74
2021/05/02 05:20:37;;;;;;;20.27;12.90;;;10.30;55.90;;;;;;5050117;28;20065;-74
2021/05/02 05:23:03;;;;;;;23.50;13.98;;;10.30;55.90;;;;;;5045458;28;20100;-74
2021/05/02 05:25:29;;;;;;;22.08;13.60;;;10.30;56.00;;;;;;5049261;28;20135;-75
2021/05/02 05:27:56;;;;;;;17.85;13.10;;;10.20;56.10;;;;;;5049885;28;20042;-74
2021/05/02 05:30:22;;;;;;;24.42;12.82;;;10.20;56.10;;;;;;5046838;28;20128;-74
2021/05/02 05:32:49;;;;;;;23.67;12.52;;;10.10;56.40;;;;;;5050486;28;20099;-74
2021/05/02 05:35:15;;;;;;;21.65;12.75;;;10.10;56.50;;;;;;5039288;28;20443;-74
2021/05/02 05:37:42;;;;;;;19.55;13.00;;;10.10;56.60;;;;;;5050105;28;20137;-73
2021/05/02 05:40:09;;;;;;;22.15;13.57;;;10.10;56.80;;;;;;5040179;28;20107;-73
2021/05/02 05:42:35;;;;;;;21.13;12.98;;;10.10;56.70;;;;;;5064066;28;20071;-74
2021/05/02 05:45:02;;;;;;;22.40;13.95;;;10.20;56.80;;;;;;5044674;28;20197;-74
2021/05/02 05:47:29;;;;;;;18.55;13.23;;;10.40;56.50;;;;;;5049637;28;20085;-74
2021/05/02 05:49:56;;;;;;;20.70;13.40;;;10.40;56.70;;;;;;5048559;28;20675;-73
2021/05/02 05:52:22;;;;;;;24.45;13.68;;;10.40;56.60;;;;;;5042087;28;20045;-75
2021/05/02 05:54:49;;;;;;;22.08;14.05;;;10.50;56.50;;;;;;5044212;28;20103;-74
2021/05/02 05:57:15;;;;;;;20.33;13.50;;;10.40;56.70;;;;;;5044399;28;20037;-74
2021/05/02 05:59:41;;;;;;;22.67;13.82;;;10.40;56.80;;;;;;5056024;28;20421;-74
2021/05/02 06:02:48;;;;;;;21.75;14.82;;;10.40;56.60;;;;;;5045850;28;20048;-75
2021/05/02 06:05:15;;;;;;;27.15;14.35;;;10.40;56.80;;;;;;5047092;28;20048;-75
2021/05/02 06:07:43;;;;;;;23.33;14.23;;;10.60;56.60;;;;;;5048284;28;20390;-74
2021/05/02 06:10:12;;;;;;;21.13;13.85;;;10.80;56.20;;;;;;5051114;28;20045;-74
2021/05/02 06:12:38;;;;;;;20.75;14.23;;;11.50;55.50;;;;;;5049982;28;20122;-74
2021/05/02 06:15:22;;;;;;;21.42;13.82;;;11.80;54.10;;;;;;5052112;28;20472;-74
2021/05/02 06:17:51;;;;;;;19.23;13.45;;;11.90;53.90;;;;;;5066098;28;20049;-75
2021/05/02 06:20:18;;;;;;;23.58;14.00;;;11.70;54.40;;;;;;5048616;28;20061;-75
2021/05/02 06:22:54;;;;;;;22.23;14.60;;;12.20;54.00;;;;;;5040821;28;20550;-75
2021/05/02 06:25:25;;;;;;;21.83;14.55;;;12.10;53.70;;;;;;5047483;28;20068;-75
2021/05/02 06:28:20;;;;;;;22.40;14.32;;;12.20;53.80;;;;;;5002460;28;20057;-76
2021/05/02 06:30:47;;;;;;;22.83;13.50;;;12.10;53.50;;;;;;4996169;28;20042;-74
2021/05/02 06:33:14;;;;;;;21.95;14.52;;;11.60;54.80;;;;;;5048162;28;20056;-74
2021/05/02 06:35:48;;;;;;;25.55;14.73;;;11.30;55.60;;;;;;5047333;28;20049;-74
2021/05/02 06:38:21;;;;;;;23.02;14.82;;;11.50;55.80;;;;;;5053278;28;20128;-75
2021/05/02 06:41:29;;;;;;;21.20;15.20;;;11.50;55.70;;;;;;5050200;28;20312;-76
2021/05/02 06:44:02;;;;;;;22.27;14.82;;;11.50;55.60;;;;;;5049535;28;20048;-73
2021/05/02 06:46:29;;;;;;;23.45;15.15;;;11.80;55.50;;;;;;5043856;28;20064;-74
2021/05/02 06:49:02;;;;;;;26.20;15.37;;;11.90;55.00;;;;;;5052897;28;20059;-74
2021/05/02 06:51:36;;;;;;;23.15;14.70;;;11.90;54.80;;;;;;5051609;28;20045;-74
2021/05/02 06:54:02;;;;;;;24.52;14.82;;;12.00;54.50;;;;;;5047610;28;20041;-75
2021/05/02 06:56:34;;;;;;;26.00;15.35;;;12.10;54.40;;;;;;5053475;28;20488;-73
2021/05/02 06:59:10;;;;;;;27.67;14.77;;;12.10;54.60;;;;;;5055095;28;20071;-73
2021/05/02 07:01:39;;;;;;;22.58;14.63;;;12.50;54.10;;;;;;5051980;28;20065;-74
2021/05/02 07:04:11;;;;;;;23.35;14.40;;;12.10;53.60;;;;;;5050140;28;20051;-74
2021/05/02 07:06:38;;;;;;;24.05;16.23;;;12.10;53.90;;;;;;5051738;28;20061;-74
2021/05/02 07:09:04;;;;;;;24.25;15.57;;;12.10;54.30;;;;;;5043206;28;20126;-73
2021/05/02 07:11:31;;;;;;;23.85;15.30;;;12.10;54.10;;;;;;5051534;28;20076;-71
2021/05/02 07:14:03;;;;;;;23.30;15.57;;;12.30;54.00;;;;;;5051308;28;20139;-74
2021/05/02 07:16:47;;;;;;;23.27;15.98;;;12.80;53.60;;;;;;5052007;28;20252;-74
2021/05/02 07:19:14;;;;;;;27.35;16.02;;;12.80;52.90;;;;;;5048238;28;20473;-74
2021/05/02 07:21:41;;;;;;;23.05;13.98;;;12.70;53.20;;;;;;5052121;28;20128;-73
2021/05/02 07:24:08;;;;;;;23.00;14.63;;;12.90;52.50;;;;;;5050504;28;20087;-75
2021/05/02 07:26:41;;;;;;;23.73;14.75;;;13.00;52.20;;;;;;5049926;28;20443;-73
2021/05/02 07:29:11;;;;;;;21.27;14.50;;;13.20;52.00;;;;;;5049969;28;20106;-75
2021/05/02 07:31:40;;;;;;;24.13;14.88;;;13.10;52.50;;;;;;5049075;28;20130;-76
2021/05/02 07:34:12;;;;;;;20.45;13.57;;;13.70;51.10;;;;;;5049287;28;20126;-75
2021/05/02 07:36:45;;;;;;;23.92;14.77;;;13.90;50.70;;;;;;5051588;28;20049;-73
2021/05/02 07:39:16;;;;;;;22.75;14.32;;;13.30;50.00;;;;;;5047565;28;20496;-75
2021/05/02 07:41:43;;;;;;;23.63;14.27;;;13.80;50.30;;;;;;5051041;28;20053;-74
2021/05/02 07:44:11;;;;;;;19.63;13.75;;;13.50;50.30;;;;;;5049025;28;20506;-73
2021/05/02 07:46:38;;;;;;;22.40;13.68;;;13.50;50.50;;;;;;5045887;28;20088;-75
2021/05/02 07:49:06;;;;;;;20.67;14.10;;;13.40;50.50;;;;;;5050183;28;20596;-75
2021/05/02 07:51:34;;;;;;;25.27;14.18;;;13.40;50.60;;;;;;5048185;28;20550;-75
2021/05/02 07:54:10;;;;;;;21.67;13.52;;;12.90;51.20;;;;;;5048977;28;20048;-74
2021/05/02 07:56:52;;;;;;;25.70;14.73;;;12.80;51.50;;;;;;5036557;28;20727;-75
2021/05/02 07:59:18;;;;;;;22.55;14.13;;;12.70;51.90;;;;;;5041068;28;20084;-74
2021/05/02 08:01:45;;;;;;;21.00;14.55;;;13.00;51.80;;;;;;5047692;28;20144;-75
2021/05/02 08:04:11;;;;;;;21.63;14.18;;;13.20;51.50;;;;;;5051237;28;20057;-74
2021/05/02 08:06:41;;;;;;;23.75;15.07;;;13.20;51.20;;;;;;5044847;28;20056;-75
2021/05/02 08:09:07;;;;;;;22.48;14.10;;;13.30;51.00;;;;;;5045183;28;20125;-75
2021/05/02 08:11:34;;;;;;;23.02;13.88;;;13.60;50.10;;;;;;5044030;28;20052;-74
2021/05/02 08:14:07;;;;;;;21.67;13.68;;;13.50;50.20;;;;;;5065939;28;20041;-72
2021/05/02 08:16:36;;;;;;;23.52;13.77;;;13.40;50.30;;;;;;5048071;28;20041;-73
2021/05/02 08:19:03;;;;;;;19.90;13.07;;;13.40;49.80;;;;;;5048893;28;20080;-74
2021/05/02 08:21:29;;;;;;;17.45;11.50;;;13.90;49.20;;;;;;5053772;28;20092;-74
2021/05/02 08:23:56;;;;;;;16.38;12.00;;;13.60;48.50;;;;;;5046634;28;20126;-74
2021/05/02 08:26:22;;;;;;;19.27;12.38;;;12.90;48.70;;;;;;5038141;28;20502;-73
2021/05/02 08:28:51;;;;;;;16.48;10.68;;;13.00;48.70;;;;;;5048291;28;20106;-75
2021/05/02 08:31:17;;;;;;;19.38;11.48;;;13.70;47.60;;;;;;5047331;28;20137;-74
2021/05/02 08:33:44;;;;;;;17.00;10.05;;;14.50;46.60;;;;;;5048713;28;20080;-73
2021/05/02 08:36:10;;;;;;;16.05;9.50;;;14.20;45.80;;;;;;5049302;28;20121;-73
2021/05/02 08:38:37;;;;;;;14.52;9.43;;;13.90;46.10;;;;;;5042560;28;20044;-73
2021/05/02 08:41:04;;;;;;;15.18;8.90;;;14.10;45.90;;;;;;5044219;28;20063;-74
2021/05/02 08:43:32;;;;;;;13.77;9.40;;;13.60;45.80;;;;;;5047454;28;20099;-73
2021/05/02 08:45:59;;;;;;;15.10;9.40;;;13.50;46.60;;;;;;5046535;28;21013;-74
2021/05/02 08:48:25;;;;;;;13.50;9.35;;;13.80;46.50;;;;;;5032346;28;20488;-73
2021/05/02 08:50:57;;;;;;;12.82;8.43;;;14.20;45.20;;;;;;5049147;28;20423;-74
2021/05/02 08:53:27;;;;;;;13.88;8.82;;;13.90;45.00;;;;;;5044176;28;20392;-74
2021/05/02 08:55:57;;;;;;;15.45;8.68;;;13.90;45.00;;;;;;5047025;28;20465;-73
2021/05/02 08:58:24;;;;;;;10.87;7.73;;;14.20;45.40;;;;;;5049165;28;20107;-74
2021/05/02 09:00:51;;;;;;;12.13;8.38;;;14.30;44.70;;;;;;5048032;28;20080;-73
2021/05/02 09:03:18;;;;;;;13.85;8.80;;;14.10;45.40;;;;;;5045540;28;20056;-73
2021/05/02 09:05:46;;;;;;;15.52;9.05;;;13.90;45.70;;;;;;5048523;28;20108;-73
2021/05/02 09:08:33;;;;;;;14.75;9.23;;;14.00;45.60;;;;;;5049938;28;20080;-74
2021/05/02 09:11:01;;;;;;;15.43;8.70;;;13.90;45.20;;;;;;5061185;28;20619;-74
2021/05/02 09:13:29;;;;;;;14.85;8.88;;;14.00;45.50;;;;;;5048073;28;20646;-73
2021/05/02 09:15:57;;;;;;;13.63;8.35;;;13.70;46.20;;;;;;5047038;28;20128;-73
2021/05/02 09:18:37;;;;;;;15.80;9.75;;;13.60;46.30;;;;;;5048045;28;20080;-73
2021/05/02 09:21:08;;;;;;;13.88;9.25;;;13.90;46.10;;;;;;5048093;28;20381;-74
2021/05/02 09:23:37;;;;;;;14.23;8.88;;;13.90;45.50;;;;;;5046211;28;20082;-74
2021/05/02 09:26:05;;;;;;;15.27;8.52;;;13.90;45.60;;;;;;5035524;28;20041;-74
2021/05/02 09:28:48;;;;;;;11.48;8.55;;;14.00;45.20;;;;;;5047584;28;20037;-73
2021/05/02 09:31:18;;;;;;;11.18;8.07;;;13.70;45.00;;;;;;5043921;28;20515;-72
2021/05/02 09:33:44;;;;;;;15.98;8.65;;;14.30;45.00;;;;;;5050073;28;20052;-74
2021/05/02 09:36:16;;;;;;;12.68;8.80;;;14.40;44.50;;;;;;5048032;28;20091;-73
2021/05/02 09:38:44;;;;;;;12.20;8.32;;;14.40;44.50;;;;;;5036921;28;20144;-75
2021/05/02 09:41:13;;;;;;;14.27;8.32;;;14.30;43.90;;;;;;5041145;28;20099;-75
2021/05/02 09:43:50;;;;;;;14.48;8.45;;;14.30;44.80;;;;;;5040113;28;20558;-75
2021/05/02 09:46:27;;;;;;;11.55;8.50;;;14.60;44.40;;;;;;5038259;28;20056;-75
2021/05/02 09:48:56;;;;;;;11.95;7.82;;;14.50;44.30;;;;;;5041616;28;20147;-74
2021/05/02 09:51:25;;;;;;;13.18;8.50;;;14.40;44.80;;;;;;5035783;28;20060;-73
2021/05/02 09:54:06;;;;;;;12.27;7.80;;;14.70;45.20;;;;;;5030802;28;20605;-73
2021/05/02 09:56:50;;;;;;;11.30;7.97;;;14.40;44.70;;;;;;5031939;28;20123;-75
2021/05/02 09:59:28;;;;;;;10.70;7.70;;;14.10;44.60;;;;;;5031780;28;20056;-74
2021/05/02 10:02:02;;;;;;;11.00;7.13;;;14.00;44.90;;;;;;5031632;28;20053;-74
2021/05/02 10:04:32;;;;;;;12.00;7.40;;;14.40;44.00;;;;;;5030631;28;20057;-74
2021/05/02 10:07:01;;;;;;;9.35;7.00;;;14.80;43.70;;;;;;5033384;28;20052;-76
2021/05/02 10:09:28;;;;;;;10.27;7.07;;;14.40;42.70;;;;;;5033383;28;20543;-76
2021/05/02 10:11:54;;;;;;;10.70;7.03;;;14.00;43.20;;;;;;5033000;28;21449;-73
2021/05/02 10:14:21;;;;;;;10.10;6.95;;;14.50;43.00;;;;;;5031144;28;20055;-75
2021/05/02 10:16:47;;;;;;;8.48;6.53;;;15.10;41.80;;;;;;5029955;28;20143;-74
2021/05/02 10:19:14;;;;;;;9.95;6.25;;;14.90;41.90;;;;;;5033844;28;20068;-75
2021/05/02 10:21:42;;;;;;;10.55;6.45;;;14.70;41.70;;;;;;5030729;28;20136;-74
2021/05/02 10:24:09;;;;;;;7.57;5.68;;;14.60;41.30;;;;;;5030576;28;20122;-74
2021/05/02 10:26:40;;;;;;;10.02;6.72;;;14.90;41.20;;;;;;5031410;28;20154;-73
2021/05/02 10:29:29;;;;;;;6.15;4.75;;;15.50;40.00;;;;;;5033363;28;20527;-74
2021/05/02 10:32:15;;;;;;;12.95;6.07;;;15.90;38.70;;;;;;5031446;28;20512;-76
2021/05/02 10:34:49;;;;;;;10.23;5.00;;;16.30;38.00;;;;;;5035199;28;20127;-74
2021/05/02 10:37:25;;;;;;;9.70;4.45;;;16.10;38.60;;;;;;5031438;28;20057;-72
2021/05/02 10:40:30;;;;;;;8.35;4.82;;;16.30;37.40;;;;;;5030341;28;20045;-74
2021/05/02 10:43:08;;;;;;;9.57;5.80;;;16.40;36.90;;;;;;5033976;28;20116;-73
2021/05/02 10:45:39;;;;;;;8.48;5.18;;;16.00;37.70;;;;;;5031717;28;20059;-73
2021/05/02 10:48:30;;;;;;;7.28;4.53;;;16.40;37.50;;;;;;5031876;28;20064;-73
2021/05/02 10:50:57;;;;;;;8.60;4.55;;;17.00;34.80;;;;;;5030197;28;20546;-75
2021/05/02 10:53:27;;;;;;;6.50;3.97;;;16.90;34.80;;;;;;5030316;28;20073;-74
2021/05/02 10:56:01;;;;;;;8.05;3.97;;;16.40;35.20;;;;;;5029435;28;20049;-74
2021/05/02 10:58:29;;;;;;;5.47;3.78;;;16.50;35.40;;;;;;5029953;28;20079;-74
2021/05/02 11:01:15;;;;;;;7.25;4.32;;;16.60;35.50;;;;;;5030119;28;20833;-74
2021/05/02 11:03:42;;;;;;;5.50;3.38;;;16.00;35.00;;;;;;5031639;28;20067;-75
2021/05/02 11:06:11;;;;;;;4.32;2.97;;;15.90;35.20;;;;;;5032114;28;20716;-74
2021/05/02 11:08:58;;;;;;;4.50;3.17;;;16.40;33.40;;;;;;5029332;28;20114;-74
2021/05/02 11:11:31;;;;;;;5.53;3.30;;;16.30;33.00;;;;;;5014227;28;20061;-74
2021/05/02 11:14:10;;;;;;;6.32;3.10;;;16.10;33.70;;;;;;5030642;28;20045;-73
2021/05/02 11:16:41;;;;;;;5.53;3.33;;;16.40;34.20;;;;;;5028332;28;20053;-76
2021/05/02 11:19:38;;;;;;;6.78;3.40;;;16.40;35.80;;;;;;5027829;28;20057;-74
2021/05/02 11:22:11;;;;;;;4.53;3.10;;;16.10;36.60;;;;;;5029993;28;20215;-74
2021/05/02 11:24:42;;;;;;;4.55;2.90;;;15.50;37.30;;;;;;5030179;28;20150;-74
2021/05/02 11:30:07;;;;;;;6.95;4.03;;;15.40;37.90;;;;;;5036541;28;21341;-74
2021/05/02 11:32:38;;;;;;;5.72;4.05;;;14.90;37.70;;;;;;5032425;28;20106;-75
2021/05/02 11:35:06;;;;;;;5.57;2.90;;;14.40;37.90;;;;;;5035202;28;20114;-75
2021/05/02 11:37:45;;;;;;;6.65;3.03;;;15.60;36.50;;;;;;5033851;28;20053;-74
2021/05/02 11:40:27;;;;;;;7.45;3.28;;;16.60;34.80;;;;;;5033820;28;20131;-73
2021/05/02 11:42:57;;;;;;;5.00;3.30;;;16.70;35.20;;;;;;5033969;28;20142;-73
2021/05/02 11:45:26;;;;;;;5.25;3.15;;;16.30;36.50;;;;;;5032784;28;20145;-75
2021/05/02 11:47:53;;;;;;;5.18;2.80;;;16.00;36.60;;;;;;5034322;28;20103;-73
2021/05/02 11:50:21;;;;;;;4.32;2.83;;;15.50;36.90;;;;;;5033410;28;20053;-75
2021/05/02 11:52:53;;;;;;;6.20;2.75;;;17.20;35.30;;;;;;5033482;28;20449;-75
2021/05/02 11:55:33;;;;;;;3.60;2.33;;;17.40;35.20;;;;;;5033785;28;20049;-74
2021/05/02 11:58:14;;;;;;;2.78;2.30;;;19.00;32.60;;;;;;5033816;28;20079;-71
2021/05/02 12:00:47;;;;;;;6.03;2.63;;;20.60;29.80;;;;;;5032716;28;20048;-72
2021/05/02 12:03:34;;;;;;;3.55;2.20;;;20.40;30.10;;;;;;5055745;28;20173;-73
2021/05/02 12:06:02;;;;;;;4.38;2.85;;;20.90;30.00;;;;;;5033265;28;20492;-71
2021/05/02 12:08:29;;;;;;;4.07;2.90;;;18.50;32.50;;;;;;5034818;28;20084;-74
2021/05/02 12:10:59;;;;;;;;;;;18.30;33.80;;;;;;5034264;28;20080;-75
2021/05/02 12:13:37;;;;;;;4.85;3.00;;;17.90;34.20;;;;;;5032732;28;20049;-74
2021/05/02 12:16:21;;;;;;;6.95;3.33;;;18.00;34.80;;;;;;5038177;28;20052;-79
2021/05/02 12:18:51;;;;;;;7.85;3.05;;;17.20;37.10;;;;;;5050405;28;20051;-73
2021/05/02 12:21:27;;;;;;;5.03;3.17;;;16.40;37.50;;;;;;5036823;28;20053;-75
2021/05/02 12:24:14;;;;;;;7.03;2.97;;;20.00;36.20;;;;;;5033345;28;20072;-76
2021/05/02 12:26:44;;;;;;;5.68;3.30;;;21.30;31.30;;;;;;5030666;28;20049;-76
2021/05/02 12:29:17;;;;;;;5.32;3.35;;;20.50;34.80;;;;;;5033988;28;20469;-77
2021/05/02 12:31:54;;;;;;;4.25;2.92;;;20.30;35.90;;;;;;5046951;28;20056;-76
2021/05/02 12:34:32;;;;;;;4.32;3.00;;;20.80;34.00;;;;;;5031648;28;20044;-76
2021/05/02 12:37:10;;;;;;;6.25;2.90;;;19.30;34.60;;;;;;5032992;28;20061;-78
2021/05/02 12:39:40;;;;;;;8.20;3.20;;;18.40;34.50;;;;;;5031783;28;20072;-76
2021/05/02 12:42:09;;;;;;;6.05;3.00;;;19.80;34.90;;;;;;5032429;28;20136;-78
2021/05/02 12:44:38;;;;;;;4.07;2.38;;;19.80;34.20;;;;;;5031237;28;20303;-76
2021/05/02 12:47:20;;;;;;;2.88;2.50;;;22.40;32.30;;;;;;5035256;28;20119;-75
2021/05/02 12:49:58;;;;;;;6.10;3.13;;;20.40;31.80;;;;;;5033378;28;20385;-77
2021/05/02 12:52:36;;;;;;;8.02;2.65;;;19.20;32.30;;;;;;5035311;28;20083;-77
2021/05/02 12:55:26;;;;;;;5.35;2.60;;;17.90;34.50;;;;;;5040155;28;20122;-77
2021/05/02 12:58:02;;;;;;;4.30;2.90;;;17.10;36.30;;;;;;5042476;28;20049;-75